sensor_id;sensor_type;location;lat;lon;timestamp;P1;durP1;ratioP1;P2;durP2;ratioP2
60494;SDS011;46342;49.046;11.920;2022-08-19T00:00:26;8.38;;;7.13;;
60494;SDS011;46342;49.046;11.920;2022-08-19T00:02:52;9.55;;;7.80;;
60494;SDS011;46342;49.046;11.920;2022-08-19T00:05:19;9.45;;;8.00;;
60494;SDS011;46342;49.046;11.920;2022-08-19T00:07:46;10.07;;;7.80;;
60494;SDS011;46342;49.046;11.920;2022-08-19T00:10:13;9.50;;;6.93;;
60494;SDS011;46342;49.046;11.920;2022-08-19T00:12:40;11.68;;;7.68;;
60494;SDS011;46342;49.046;11.920;2022-08-19T00:15:10;9.50;;;8.30;;
60494;SDS011;46342;49.046;11.920;2022-08-19T00:17:39;9.30;;;8.00;;
60494;SDS011;46342;49.046;11.920;2022-08-19T00:20:06;9.90;;;7.50;;
60494;SDS011;46342;49.046;11.920;2022-08-19T00:22:32;7.60;;;6.45;;
60494;SDS011;46342;49.046;11.920;2022-08-19T00:24:58;9.07;;;8.15;;
60494;SDS011;46342;49.046;11.920;2022-08-19T00:27:24;11.02;;;8.45;;
60494;SDS011;46342;49.046;11.920;2022-08-19T00:29:49;11.32;;;7.60;;
60494;SDS011;46342;49.046;11.920;2022-08-19T00:32:15;10.27;;;7.63;;
60494;SDS011;46342;49.046;11.920;2022-08-19T00:34:42;10.85;;;8.48;;
60494;SDS011;46342;49.046;11.920;2022-08-19T00:37:08;11.02;;;7.68;;
60494;SDS011;46342;49.046;11.920;2022-08-19T00:39:34;10.75;;;8.25;;
60494;SDS011;46342;49.046;11.920;2022-08-19T00:42:00;10.60;;;8.35;;
60494;SDS011;46342;49.046;11.920;2022-08-19T00:44:27;8.13;;;7.28;;
60494;SDS011;46342;49.046;11.920;2022-08-19T00:46:56;8.77;;;7.82;;
60494;SDS011;46342;49.046;11.920;2022-08-19T00:52:16;9.15;;;7.55;;
60494;SDS011;46342;49.046;11.920;2022-08-19T00:55:02;9.77;;;7.38;;
60494;SDS011;46342;49.046;11.920;2022-08-19T00:57:32;8.93;;;7.25;;
60494;SDS011;46342;49.046;11.920;2022-08-19T01:00:04;8.35;;;6.63;;
60494;SDS011;46342;49.046;11.920;2022-08-19T01:02:36;9.73;;;6.63;;
60494;SDS011;46342;49.046;11.920;2022-08-19T01:05:05;9.30;;;6.75;;
60494;SDS011;46342;49.046;11.920;2022-08-19T01:07:33;7.70;;;6.68;;
60494;SDS011;46342;49.046;11.920;2022-08-19T01:09:59;9.67;;;7.20;;
60494;SDS011;46342;49.046;11.920;2022-08-19T01:12:26;9.93;;;7.72;;
60494;SDS011;46342;49.046;11.920;2022-08-19T01:14:51;8.85;;;7.28;;
60494;SDS011;46342;49.046;11.920;2022-08-19T01:17:18;11.00;;;7.30;;
60494;SDS011;46342;49.046;11.920;2022-08-19T01:19:45;8.95;;;7.93;;
60494;SDS011;46342;49.046;11.920;2022-08-19T01:24:57;8.98;;;7.22;;
60494;SDS011;46342;49.046;11.920;2022-08-19T01:27:23;8.68;;;6.80;;
60494;SDS011;46342;49.046;11.920;2022-08-19T01:29:48;8.10;;;7.13;;
60494;SDS011;46342;49.046;11.920;2022-08-19T01:32:15;8.60;;;7.70;;
60494;SDS011;46342;49.046;11.920;2022-08-19T01:34:42;8.48;;;6.47;;
60494;SDS011;46342;49.046;11.920;2022-08-19T01:37:12;8.30;;;6.93;;
60494;SDS011;46342;49.046;11.920;2022-08-19T01:39:39;7.15;;;6.40;;
60494;SDS011;46342;49.046;11.920;2022-08-19T01:42:06;9.07;;;8.18;;
60494;SDS011;46342;49.046;11.920;2022-08-19T01:44:34;7.05;;;6.15;;
60494;SDS011;46342;49.046;11.920;2022-08-19T01:47:01;9.60;;;8.38;;
60494;SDS011;46342;49.046;11.920;2022-08-19T01:49:28;8.70;;;7.55;;
60494;SDS011;46342;49.046;11.920;2022-08-19T01:51:54;9.95;;;7.80;;
60494;SDS011;46342;49.046;11.920;2022-08-19T01:54:21;9.75;;;6.97;;
60494;SDS011;46342;49.046;11.920;2022-08-19T01:56:53;11.15;;;7.70;;
60494;SDS011;46342;49.046;11.920;2022-08-19T01:59:24;9.85;;;7.70;;
60494;SDS011;46342;49.046;11.920;2022-08-19T02:01:50;10.23;;;7.25;;
60494;SDS011;46342;49.046;11.920;2022-08-19T02:04:16;9.88;;;7.10;;
60494;SDS011;46342;49.046;11.920;2022-08-19T02:06:48;10.30;;;8.07;;
60494;SDS011;46342;49.046;11.920;2022-08-19T02:09:14;8.55;;;7.13;;
60494;SDS011;46342;49.046;11.920;2022-08-19T02:11:39;11.43;;;7.55;;
60494;SDS011;46342;49.046;11.920;2022-08-19T02:14:07;9.30;;;8.03;;
60494;SDS011;46342;49.046;11.920;2022-08-19T02:16:33;9.60;;;7.43;;
60494;SDS011;46342;49.046;11.920;2022-08-19T02:19:02;9.20;;;7.47;;
60494;SDS011;46342;49.046;11.920;2022-08-19T02:21:29;10.02;;;8.18;;
60494;SDS011;46342;49.046;11.920;2022-08-19T02:23:55;9.60;;;7.70;;
60494;SDS011;46342;49.046;11.920;2022-08-19T02:26:21;9.25;;;7.00;;
60494;SDS011;46342;49.046;11.920;2022-08-19T02:28:47;9.15;;;7.72;;
60494;SDS011;46342;49.046;11.920;2022-08-19T02:31:15;8.00;;;7.05;;
60494;SDS011;46342;49.046;11.920;2022-08-19T02:33:42;11.55;;;7.95;;
60494;SDS011;46342;49.046;11.920;2022-08-19T02:36:09;9.50;;;7.57;;
60494;SDS011;46342;49.046;11.920;2022-08-19T02:38:36;12.48;;;8.60;;
60494;SDS011;46342;49.046;11.920;2022-08-19T02:41:04;9.57;;;7.83;;
60494;SDS011;46342;49.046;11.920;2022-08-19T02:43:37;10.93;;;7.90;;
60494;SDS011;46342;49.046;11.920;2022-08-19T02:48:59;8.27;;;7.30;;
60494;SDS011;46342;49.046;11.920;2022-08-19T02:51:28;11.55;;;8.65;;
60494;SDS011;46342;49.046;11.920;2022-08-19T02:53:58;11.15;;;8.30;;
60494;SDS011;46342;49.046;11.920;2022-08-19T02:56:25;10.55;;;7.35;;
60494;SDS011;46342;49.046;11.920;2022-08-19T02:58:52;11.38;;;9.38;;
60494;SDS011;46342;49.046;11.920;2022-08-19T03:01:20;11.13;;;8.57;;
60494;SDS011;46342;49.046;11.920;2022-08-19T03:03:54;10.45;;;8.55;;
60494;SDS011;46342;49.046;11.920;2022-08-19T03:06:23;9.77;;;8.50;;
60494;SDS011;46342;49.046;11.920;2022-08-19T03:08:49;10.52;;;8.18;;
60494;SDS011;46342;49.046;11.920;2022-08-19T03:11:16;11.52;;;8.48;;
60494;SDS011;46342;49.046;11.920;2022-08-19T03:13:47;8.63;;;7.05;;
60494;SDS011;46342;49.046;11.920;2022-08-19T03:16:17;9.45;;;8.15;;
60494;SDS011;46342;49.046;11.920;2022-08-19T03:18:43;10.52;;;8.38;;
60494;SDS011;46342;49.046;11.920;2022-08-19T03:21:09;9.10;;;7.60;;
60494;SDS011;46342;49.046;11.920;2022-08-19T03:23:40;9.82;;;7.47;;
60494;SDS011;46342;49.046;11.920;2022-08-19T03:26:05;10.50;;;8.43;;
60494;SDS011;46342;49.046;11.920;2022-08-19T03:28:31;8.65;;;7.72;;
60494;SDS011;46342;49.046;11.920;2022-08-19T03:30:59;9.52;;;8.38;;
60494;SDS011;46342;49.046;11.920;2022-08-19T03:33:34;8.40;;;7.50;;
60494;SDS011;46342;49.046;11.920;2022-08-19T03:38:38;8.90;;;7.30;;
60494;SDS011;46342;49.046;11.920;2022-08-19T03:41:07;8.13;;;6.90;;
60494;SDS011;46342;49.046;11.920;2022-08-19T03:43:35;10.50;;;8.52;;
60494;SDS011;46342;49.046;11.920;2022-08-19T03:46:03;12.40;;;8.38;;
60494;SDS011;46342;49.046;11.920;2022-08-19T03:48:32;9.65;;;8.27;;
60494;SDS011;46342;49.046;11.920;2022-08-19T03:50:58;14.15;;;9.45;;
60494;SDS011;46342;49.046;11.920;2022-08-19T03:53:25;9.38;;;8.18;;
60494;SDS011;46342;49.046;11.920;2022-08-19T03:55:58;13.00;;;7.63;;
60494;SDS011;46342;49.046;11.920;2022-08-19T03:58:25;13.80;;;9.52;;
60494;SDS011;46342;49.046;11.920;2022-08-19T04:00:53;10.30;;;9.02;;
60494;SDS011;46342;49.046;11.920;2022-08-19T04:03:21;9.68;;;7.72;;
60494;SDS011;46342;49.046;11.920;2022-08-19T04:05:47;11.05;;;9.38;;
60494;SDS011;46342;49.046;11.920;2022-08-19T04:08:13;11.77;;;8.80;;
60494;SDS011;46342;49.046;11.920;2022-08-19T04:10:43;11.40;;;9.13;;
60494;SDS011;46342;49.046;11.920;2022-08-19T04:13:08;10.02;;;8.68;;
60494;SDS011;46342;49.046;11.920;2022-08-19T04:15:38;14.55;;;10.07;;
60494;SDS011;46342;49.046;11.920;2022-08-19T04:18:13;11.93;;;8.93;;
60494;SDS011;46342;49.046;11.920;2022-08-19T04:20:43;9.57;;;8.57;;
60494;SDS011;46342;49.046;11.920;2022-08-19T04:23:11;12.18;;;9.02;;
60494;SDS011;46342;49.046;11.920;2022-08-19T04:25:38;11.20;;;9.13;;
60494;SDS011;46342;49.046;11.920;2022-08-19T04:28:06;10.68;;;8.93;;
60494;SDS011;46342;49.046;11.920;2022-08-19T04:30:47;10.98;;;9.23;;
60494;SDS011;46342;49.046;11.920;2022-08-19T04:33:15;10.25;;;8.43;;
60494;SDS011;46342;49.046;11.920;2022-08-19T04:35:44;10.75;;;8.30;;
60494;SDS011;46342;49.046;11.920;2022-08-19T04:38:20;10.55;;;8.60;;
60494;SDS011;46342;49.046;11.920;2022-08-19T04:40:52;11.10;;;8.90;;
60494;SDS011;46342;49.046;11.920;2022-08-19T04:43:37;13.65;;;9.35;;
60494;SDS011;46342;49.046;11.920;2022-08-19T04:46:07;13.70;;;8.88;;
60494;SDS011;46342;49.046;11.920;2022-08-19T04:48:35;8.60;;;7.68;;
60494;SDS011;46342;49.046;11.920;2022-08-19T04:51:01;15.60;;;9.25;;
60494;SDS011;46342;49.046;11.920;2022-08-19T04:53:33;9.90;;;8.63;;
60494;SDS011;46342;49.046;11.920;2022-08-19T04:56:14;9.10;;;6.63;;
60494;SDS011;46342;49.046;11.920;2022-08-19T04:58:48;10.55;;;7.93;;
60494;SDS011;46342;49.046;11.920;2022-08-19T05:01:22;10.73;;;8.95;;
60494;SDS011;46342;49.046;11.920;2022-08-19T05:03:56;10.88;;;8.32;;
60494;SDS011;46342;49.046;11.920;2022-08-19T05:06:26;9.02;;;8.00;;
60494;SDS011;46342;49.046;11.920;2022-08-19T05:08:56;11.18;;;8.52;;
60494;SDS011;46342;49.046;11.920;2022-08-19T05:11:23;8.85;;;7.57;;
60494;SDS011;46342;49.046;11.920;2022-08-19T05:13:59;9.32;;;8.07;;
60494;SDS011;46342;49.046;11.920;2022-08-19T05:16:31;10.25;;;8.38;;
60494;SDS011;46342;49.046;11.920;2022-08-19T05:19:06;8.68;;;7.78;;
60494;SDS011;46342;49.046;11.920;2022-08-19T05:21:53;9.48;;;7.95;;
60494;SDS011;46342;49.046;11.920;2022-08-19T05:24:40;8.88;;;7.00;;
60494;SDS011;46342;49.046;11.920;2022-08-19T05:27:11;12.30;;;8.38;;
60494;SDS011;46342;49.046;11.920;2022-08-19T05:29:37;10.07;;;8.35;;
60494;SDS011;46342;49.046;11.920;2022-08-19T08:21:29;9.25;;;6.35;;
60494;SDS011;46342;49.046;11.920;2022-08-19T08:23:54;5.63;;;4.97;;
60494;SDS011;46342;49.046;11.920;2022-08-19T08:26:20;6.20;;;5.28;;
60494;SDS011;46342;49.046;11.920;2022-08-19T08:28:46;8.38;;;6.85;;
60494;SDS011;46342;49.046;11.920;2022-08-19T08:31:13;8.20;;;6.70;;
60494;SDS011;46342;49.046;11.920;2022-08-19T08:33:39;8.95;;;6.30;;
60494;SDS011;46342;49.046;11.920;2022-08-19T08:36:07;10.45;;;7.78;;
60494;SDS011;46342;49.046;11.920;2022-08-19T08:38:33;8.02;;;7.00;;
60494;SDS011;46342;49.046;11.920;2022-08-19T08:41:04;8.70;;;7.53;;
60494;SDS011;46342;49.046;11.920;2022-08-19T08:43:44;7.78;;;6.75;;
60494;SDS011;46342;49.046;11.920;2022-08-19T08:54:57;7.28;;;6.13;;
60494;SDS011;46342;49.046;11.920;2022-08-19T09:00:15;7.95;;;6.80;;
60494;SDS011;46342;49.046;11.920;2022-08-19T09:02:46;9.05;;;7.20;;
60494;SDS011;46342;49.046;11.920;2022-08-19T09:05:12;9.15;;;6.93;;
60494;SDS011;46342;49.046;11.920;2022-08-19T09:10:29;8.80;;;7.18;;
60494;SDS011;46342;49.046;11.920;2022-08-19T09:13:11;7.68;;;6.38;;
60494;SDS011;46342;49.046;11.920;2022-08-19T09:16:05;7.75;;;6.90;;
60494;SDS011;46342;49.046;11.920;2022-08-19T09:18:43;8.30;;;6.03;;
60494;SDS011;46342;49.046;11.920;2022-08-19T09:21:12;9.60;;;6.35;;
60494;SDS011;46342;49.046;11.920;2022-08-19T09:23:39;8.88;;;6.80;;
60494;SDS011;46342;49.046;11.920;2022-08-19T09:26:09;8.95;;;6.82;;
60494;SDS011;46342;49.046;11.920;2022-08-19T09:28:38;7.80;;;6.30;;
60494;SDS011;46342;49.046;11.920;2022-08-19T09:31:06;7.05;;;6.03;;
60494;SDS011;46342;49.046;11.920;2022-08-19T09:33:31;6.45;;;5.43;;
60494;SDS011;46342;49.046;11.920;2022-08-19T09:36:01;6.82;;;5.85;;
60494;SDS011;46342;49.046;11.920;2022-08-19T09:38:28;8.20;;;6.10;;
60494;SDS011;46342;49.046;11.920;2022-08-19T09:40:54;8.02;;;5.63;;
60494;SDS011;46342;49.046;11.920;2022-08-19T09:43:19;6.63;;;5.80;;
60494;SDS011;46342;49.046;11.920;2022-08-19T09:45:45;6.50;;;5.55;;
60494;SDS011;46342;49.046;11.920;2022-08-19T09:48:10;7.00;;;5.97;;
60494;SDS011;46342;49.046;11.920;2022-08-19T09:50:36;5.78;;;4.85;;
60494;SDS011;46342;49.046;11.920;2022-08-19T09:53:03;7.85;;;5.35;;
60494;SDS011;46342;49.046;11.920;2022-08-19T09:57:56;5.32;;;4.68;;
60494;SDS011;46342;49.046;11.920;2022-08-19T10:00:22;7.72;;;6.20;;
60494;SDS011;46342;49.046;11.920;2022-08-19T10:02:47;6.32;;;5.13;;
60494;SDS011;46342;49.046;11.920;2022-08-19T10:05:13;7.30;;;6.00;;
60494;SDS011;46342;49.046;11.920;2022-08-19T10:07:57;7.18;;;5.50;;
60494;SDS011;46342;49.046;11.920;2022-08-19T10:10:25;6.72;;;6.03;;
60494;SDS011;46342;49.046;11.920;2022-08-19T10:12:51;7.70;;;6.30;;
60494;SDS011;46342;49.046;11.920;2022-08-19T10:15:17;7.95;;;5.82;;
60494;SDS011;46342;49.046;11.920;2022-08-19T10:17:46;6.45;;;5.50;;
60494;SDS011;46342;49.046;11.920;2022-08-19T10:20:12;6.35;;;5.55;;
60494;SDS011;46342;49.046;11.920;2022-08-19T10:22:37;6.55;;;5.43;;
60494;SDS011;46342;49.046;11.920;2022-08-19T10:25:04;7.10;;;4.97;;
60494;SDS011;46342;49.046;11.920;2022-08-19T10:27:30;10.43;;;6.10;;
60494;SDS011;46342;49.046;11.920;2022-08-19T10:30:01;5.93;;;4.95;;
60494;SDS011;46342;49.046;11.920;2022-08-19T10:32:27;7.38;;;6.20;;
60494;SDS011;46342;49.046;11.920;2022-08-19T10:34:54;8.25;;;5.53;;
60494;SDS011;46342;49.046;11.920;2022-08-19T10:37:21;7.03;;;5.97;;
60494;SDS011;46342;49.046;11.920;2022-08-19T10:39:46;6.22;;;5.15;;
60494;SDS011;46342;49.046;11.920;2022-08-19T10:42:15;7.22;;;5.95;;
60494;SDS011;46342;49.046;11.920;2022-08-19T10:44:43;5.80;;;5.18;;
60494;SDS011;46342;49.046;11.920;2022-08-19T10:47:09;7.57;;;5.07;;
60494;SDS011;46342;49.046;11.920;2022-08-19T10:49:35;7.47;;;6.20;;
60494;SDS011;46342;49.046;11.920;2022-08-19T10:52:20;6.43;;;5.78;;
60494;SDS011;46342;49.046;11.920;2022-08-19T10:54:58;8.23;;;5.72;;
60494;SDS011;46342;49.046;11.920;2022-08-19T10:57:49;6.57;;;5.85;;
60494;SDS011;46342;49.046;11.920;2022-08-19T11:00:16;7.97;;;6.55;;
60494;SDS011;46342;49.046;11.920;2022-08-19T11:06:33;7.63;;;6.03;;
60494;SDS011;46342;49.046;11.920;2022-08-19T11:12:03;7.57;;;6.32;;
60494;SDS011;46342;49.046;11.920;2022-08-19T11:14:30;6.60;;;6.00;;
60494;SDS011;46342;49.046;11.920;2022-08-19T11:17:13;8.30;;;6.50;;
60494;SDS011;46342;49.046;11.920;2022-08-19T11:19:53;6.35;;;5.63;;
60494;SDS011;46342;49.046;11.920;2022-08-19T11:22:21;6.82;;;6.13;;
60494;SDS011;46342;49.046;11.920;2022-08-19T11:24:47;6.68;;;5.97;;
60494;SDS011;46342;49.046;11.920;2022-08-19T11:27:12;8.73;;;6.72;;
60494;SDS011;46342;49.046;11.920;2022-08-19T11:29:39;7.43;;;6.63;;
60494;SDS011;46342;49.046;11.920;2022-08-19T12:14:35;6.22;;;5.60;;
60494;SDS011;46342;49.046;11.920;2022-08-19T12:17:01;9.63;;;6.10;;
60494;SDS011;46342;49.046;11.920;2022-08-19T12:19:29;7.88;;;5.78;;
60494;SDS011;46342;49.046;11.920;2022-08-19T12:21:58;7.93;;;5.63;;
60494;SDS011;46342;49.046;11.920;2022-08-19T12:24:25;7.60;;;6.22;;
60494;SDS011;46342;49.046;11.920;2022-08-19T12:26:51;7.03;;;5.88;;
60494;SDS011;46342;49.046;11.920;2022-08-19T12:29:17;8.40;;;5.95;;
60494;SDS011;46342;49.046;11.920;2022-08-19T12:31:42;7.03;;;5.80;;
60494;SDS011;46342;49.046;11.920;2022-08-19T12:34:08;8.35;;;6.20;;
60494;SDS011;46342;49.046;11.920;2022-08-19T12:36:34;10.35;;;6.65;;
60494;SDS011;46342;49.046;11.920;2022-08-19T12:38:59;8.25;;;6.10;;
60494;SDS011;46342;49.046;11.920;2022-08-19T12:41:25;9.68;;;6.90;;
60494;SDS011;46342;49.046;11.920;2022-08-19T12:43:51;6.95;;;6.15;;
60494;SDS011;46342;49.046;11.920;2022-08-19T12:46:17;7.40;;;6.10;;
60494;SDS011;46342;49.046;11.920;2022-08-19T12:48:44;7.05;;;6.25;;
60494;SDS011;46342;49.046;11.920;2022-08-19T12:51:12;8.32;;;5.32;;
60494;SDS011;46342;49.046;11.920;2022-08-19T12:53:39;7.68;;;6.50;;
60494;SDS011;46342;49.046;11.920;2022-08-19T12:56:06;8.98;;;6.90;;
60494;SDS011;46342;49.046;11.920;2022-08-19T12:58:32;10.15;;;7.10;;
60494;SDS011;46342;49.046;11.920;2022-08-19T13:00:59;8.95;;;6.65;;
60494;SDS011;46342;49.046;11.920;2022-08-19T13:03:32;6.90;;;5.93;;
60494;SDS011;46342;49.046;11.920;2022-08-19T13:05:57;7.97;;;6.75;;
60494;SDS011;46342;49.046;11.920;2022-08-19T13:08:37;9.77;;;6.43;;
60494;SDS011;46342;49.046;11.920;2022-08-19T13:35:58;8.63;;;6.63;;
60494;SDS011;46342;49.046;11.920;2022-08-19T13:40:52;9.77;;;6.75;;
60494;SDS011;46342;49.046;11.920;2022-08-19T13:43:19;10.73;;;7.75;;
60494;SDS011;46342;49.046;11.920;2022-08-19T13:45:52;9.18;;;6.15;;
60494;SDS011;46342;49.046;11.920;2022-08-19T13:48:21;7.22;;;6.30;;
60494;SDS011;46342;49.046;11.920;2022-08-19T13:50:47;11.13;;;7.30;;
60494;SDS011;46342;49.046;11.920;2022-08-19T13:53:13;7.47;;;6.43;;
60494;SDS011;46342;49.046;11.920;2022-08-19T13:55:41;8.27;;;6.72;;
60494;SDS011;46342;49.046;11.920;2022-08-19T13:58:10;9.38;;;6.97;;
60494;SDS011;46342;49.046;11.920;2022-08-19T14:00:38;10.07;;;7.05;;
60494;SDS011;46342;49.046;11.920;2022-08-19T14:03:05;8.52;;;6.53;;
60494;SDS011;46342;49.046;11.920;2022-08-19T14:08:52;6.90;;;6.05;;
60494;SDS011;46342;49.046;11.920;2022-08-19T14:11:18;12.23;;;7.35;;
60494;SDS011;46342;49.046;11.920;2022-08-19T14:13:44;10.00;;;7.47;;
60494;SDS011;46342;49.046;11.920;2022-08-19T14:16:11;11.25;;;7.43;;
60494;SDS011;46342;49.046;11.920;2022-08-19T14:18:38;11.25;;;8.05;;
60494;SDS011;46342;49.046;11.920;2022-08-19T14:21:05;10.27;;;7.32;;
60494;SDS011;46342;49.046;11.920;2022-08-19T14:23:31;9.30;;;7.13;;
60494;SDS011;46342;49.046;11.920;2022-08-19T14:26:05;8.98;;;7.55;;
60494;SDS011;46342;49.046;11.920;2022-08-19T14:28:38;8.30;;;6.85;;
60494;SDS011;46342;49.046;11.920;2022-08-19T14:31:07;9.95;;;6.97;;
60494;SDS011;46342;49.046;11.920;2022-08-19T14:33:33;8.60;;;7.37;;
60494;SDS011;46342;49.046;11.920;2022-08-19T14:35:59;9.43;;;7.88;;
60494;SDS011;46342;49.046;11.920;2022-08-19T14:38:25;7.40;;;6.57;;
60494;SDS011;46342;49.046;11.920;2022-08-19T14:40:51;11.43;;;7.85;;
60494;SDS011;46342;49.046;11.920;2022-08-19T14:43:17;7.22;;;6.07;;
60494;SDS011;46342;49.046;11.920;2022-08-19T14:45:43;8.30;;;6.35;;
60494;SDS011;46342;49.046;11.920;2022-08-19T14:48:09;7.28;;;5.50;;
60494;SDS011;46342;49.046;11.920;2022-08-19T14:50:35;5.75;;;5.15;;
60494;SDS011;46342;49.046;11.920;2022-08-19T14:53:11;6.63;;;5.93;;
60494;SDS011;46342;49.046;11.920;2022-08-19T14:55:39;7.20;;;5.72;;
60494;SDS011;46342;49.046;11.920;2022-08-19T14:58:06;7.05;;;5.78;;
60494;SDS011;46342;49.046;11.920;2022-08-19T15:00:33;8.00;;;6.30;;
60494;SDS011;46342;49.046;11.920;2022-08-19T15:02:59;8.48;;;5.82;;
60494;SDS011;46342;49.046;11.920;2022-08-19T15:05:24;7.20;;;5.50;;
60494;SDS011;46342;49.046;11.920;2022-08-19T15:07:51;6.13;;;5.53;;
60494;SDS011;46342;49.046;11.920;2022-08-19T15:10:19;6.85;;;6.15;;
60494;SDS011;46342;49.046;11.920;2022-08-19T15:12:47;7.35;;;5.95;;
60494;SDS011;46342;49.046;11.920;2022-08-19T15:15:13;6.60;;;5.90;;
60494;SDS011;46342;49.046;11.920;2022-08-19T15:17:42;10.18;;;7.20;;
60494;SDS011;46342;49.046;11.920;2022-08-19T15:20:09;9.67;;;6.30;;
60494;SDS011;46342;49.046;11.920;2022-08-19T15:22:37;6.55;;;5.55;;
60494;SDS011;46342;49.046;11.920;2022-08-19T15:25:05;6.80;;;6.03;;
60494;SDS011;46342;49.046;11.920;2022-08-19T15:27:32;10.10;;;6.32;;
60494;SDS011;46342;49.046;11.920;2022-08-19T15:29:58;8.80;;;6.53;;
60494;SDS011;46342;49.046;11.920;2022-08-19T15:32:23;8.45;;;6.32;;
60494;SDS011;46342;49.046;11.920;2022-08-19T15:34:50;8.05;;;6.88;;
60494;SDS011;46342;49.046;11.920;2022-08-19T15:37:16;6.00;;;5.35;;
60494;SDS011;46342;49.046;11.920;2022-08-19T15:39:42;9.02;;;6.88;;
60494;SDS011;46342;49.046;11.920;2022-08-19T15:42:07;6.68;;;5.97;;
60494;SDS011;46342;49.046;11.920;2022-08-19T15:44:33;9.32;;;6.65;;
60494;SDS011;46342;49.046;11.920;2022-08-19T15:46:59;8.27;;;6.90;;
60494;SDS011;46342;49.046;11.920;2022-08-19T15:49:24;7.97;;;6.85;;
60494;SDS011;46342;49.046;11.920;2022-08-19T15:51:50;8.00;;;6.95;;
60494;SDS011;46342;49.046;11.920;2022-08-19T15:54:19;9.23;;;7.07;;
60494;SDS011;46342;49.046;11.920;2022-08-19T15:59:30;6.15;;;5.55;;
60494;SDS011;46342;49.046;11.920;2022-08-19T16:02:16;9.27;;;6.78;;
60494;SDS011;46342;49.046;11.920;2022-08-19T16:05:02;9.25;;;7.30;;
60494;SDS011;46342;49.046;11.920;2022-08-19T16:07:47;10.57;;;7.35;;
60494;SDS011;46342;49.046;11.920;2022-08-19T16:10:12;9.10;;;7.05;;
60494;SDS011;46342;49.046;11.920;2022-08-19T16:12:39;10.32;;;8.23;;
60494;SDS011;46342;49.046;11.920;2022-08-19T16:15:05;9.70;;;7.53;;
60494;SDS011;46342;49.046;11.920;2022-08-19T16:17:32;8.68;;;7.40;;
60494;SDS011;46342;49.046;11.920;2022-08-19T16:19:59;7.83;;;6.90;;
60494;SDS011;46342;49.046;11.920;2022-08-19T16:22:29;10.10;;;6.47;;
60494;SDS011;46342;49.046;11.920;2022-08-19T16:24:56;7.85;;;6.10;;
60494;SDS011;46342;49.046;11.920;2022-08-19T16:27:22;8.40;;;6.90;;
60494;SDS011;46342;49.046;11.920;2022-08-19T16:29:48;8.05;;;6.75;;
60494;SDS011;46342;49.046;11.920;2022-08-19T16:32:14;10.75;;;7.63;;
60494;SDS011;46342;49.046;11.920;2022-08-19T16:34:41;7.82;;;6.78;;
60494;SDS011;46342;49.046;11.920;2022-08-19T16:37:07;8.15;;;6.43;;
60494;SDS011;46342;49.046;11.920;2022-08-19T16:39:34;8.87;;;6.53;;
60494;SDS011;46342;49.046;11.920;2022-08-19T16:42:00;8.15;;;6.57;;
60494;SDS011;46342;49.046;11.920;2022-08-19T16:44:26;7.38;;;6.35;;
60494;SDS011;46342;49.046;11.920;2022-08-19T16:46:53;9.80;;;7.07;;
60494;SDS011;46342;49.046;11.920;2022-08-19T16:49:18;7.38;;;6.00;;
60494;SDS011;46342;49.046;11.920;2022-08-19T16:51:44;8.07;;;6.28;;
60494;SDS011;46342;49.046;11.920;2022-08-19T16:54:10;8.85;;;6.68;;
60494;SDS011;46342;49.046;11.920;2022-08-19T16:56:36;7.38;;;6.18;;
60494;SDS011;46342;49.046;11.920;2022-08-19T16:59:03;8.70;;;6.32;;
60494;SDS011;46342;49.046;11.920;2022-08-19T17:01:29;9.73;;;6.15;;
60494;SDS011;46342;49.046;11.920;2022-08-19T17:03:55;10.77;;;7.22;;
60494;SDS011;46342;49.046;11.920;2022-08-19T17:06:22;9.50;;;6.78;;
60494;SDS011;46342;49.046;11.920;2022-08-19T17:08:51;8.35;;;6.78;;
60494;SDS011;46342;49.046;11.920;2022-08-19T17:11:19;9.38;;;6.65;;
60494;SDS011;46342;49.046;11.920;2022-08-19T17:13:46;8.55;;;5.80;;
60494;SDS011;46342;49.046;11.920;2022-08-19T17:16:14;6.93;;;5.53;;
60494;SDS011;46342;49.046;11.920;2022-08-19T17:18:41;8.93;;;5.83;;
60494;SDS011;46342;49.046;11.920;2022-08-19T17:21:06;5.97;;;4.90;;
60494;SDS011;46342;49.046;11.920;2022-08-19T17:23:32;6.95;;;5.35;;
60494;SDS011;46342;49.046;11.920;2022-08-19T17:25:57;6.75;;;5.55;;
60494;SDS011;46342;49.046;11.920;2022-08-19T17:28:28;6.03;;;4.95;;
60494;SDS011;46342;49.046;11.920;2022-08-19T17:30:54;5.70;;;5.10;;
60494;SDS011;46342;49.046;11.920;2022-08-19T17:33:20;7.43;;;5.35;;
60494;SDS011;46342;49.046;11.920;2022-08-19T17:35:47;6.25;;;5.00;;
60494;SDS011;46342;49.046;11.920;2022-08-19T17:38:14;6.75;;;4.40;;
60494;SDS011;46342;49.046;11.920;2022-08-19T17:40:43;5.07;;;3.88;;
60494;SDS011;46342;49.046;11.920;2022-08-19T17:43:10;4.28;;;3.85;;
60494;SDS011;46342;49.046;11.920;2022-08-19T17:45:38;4.10;;;3.40;;
60494;SDS011;46342;49.046;11.920;2022-08-19T17:48:04;4.50;;;3.90;;
60494;SDS011;46342;49.046;11.920;2022-08-19T17:50:30;4.40;;;3.58;;
60494;SDS011;46342;49.046;11.920;2022-08-19T17:52:57;4.63;;;3.83;;
60494;SDS011;46342;49.046;11.920;2022-08-19T17:55:24;4.72;;;3.90;;
60494;SDS011;46342;49.046;11.920;2022-08-19T17:57:50;5.55;;;4.18;;
60494;SDS011;46342;49.046;11.920;2022-08-19T18:00:16;6.50;;;3.70;;
60494;SDS011;46342;49.046;11.920;2022-08-19T18:02:47;4.55;;;3.72;;
60494;SDS011;46342;49.046;11.920;2022-08-19T18:05:19;4.25;;;3.55;;
60494;SDS011;46342;49.046;11.920;2022-08-19T18:07:48;4.28;;;3.88;;
60494;SDS011;46342;49.046;11.920;2022-08-19T18:10:16;5.80;;;4.43;;
60494;SDS011;46342;49.046;11.920;2022-08-19T18:12:43;4.63;;;3.90;;
60494;SDS011;46342;49.046;11.920;2022-08-19T18:15:09;4.85;;;3.92;;
60494;SDS011;46342;49.046;11.920;2022-08-19T18:17:35;6.60;;;3.80;;
60494;SDS011;46342;49.046;11.920;2022-08-19T18:20:03;5.63;;;4.38;;
60494;SDS011;46342;49.046;11.920;2022-08-19T18:22:35;5.68;;;3.20;;
60494;SDS011;46342;49.046;11.920;2022-08-19T18:25:04;4.97;;;3.97;;
60494;SDS011;46342;49.046;11.920;2022-08-19T18:27:36;4.78;;;4.25;;
60494;SDS011;46342;49.046;11.920;2022-08-19T18:30:04;5.75;;;4.30;;
60494;SDS011;46342;49.046;11.920;2022-08-19T18:32:30;5.13;;;4.05;;
60494;SDS011;46342;49.046;11.920;2022-08-19T18:35:04;7.70;;;4.25;;
60494;SDS011;46342;49.046;11.920;2022-08-19T18:37:42;4.80;;;4.40;;
60494;SDS011;46342;49.046;11.920;2022-08-19T18:40:11;5.18;;;4.68;;
60494;SDS011;46342;49.046;11.920;2022-08-19T18:42:58;5.82;;;3.75;;
60494;SDS011;46342;49.046;11.920;2022-08-19T18:45:42;6.35;;;4.35;;
60494;SDS011;46342;49.046;11.920;2022-08-19T18:48:27;5.35;;;4.72;;
60494;SDS011;46342;49.046;11.920;2022-08-19T18:51:12;4.63;;;4.15;;
60494;SDS011;46342;49.046;11.920;2022-08-19T18:53:42;7.60;;;6.18;;
60494;SDS011;46342;49.046;11.920;2022-08-19T18:56:11;6.85;;;5.93;;
60494;SDS011;46342;49.046;11.920;2022-08-19T18:58:40;5.32;;;4.82;;
60494;SDS011;46342;49.046;11.920;2022-08-19T19:01:20;6.10;;;5.15;;
60494;SDS011;46342;49.046;11.920;2022-08-19T19:03:53;5.85;;;4.90;;
60494;SDS011;46342;49.046;11.920;2022-08-19T19:06:21;5.90;;;5.30;;
60494;SDS011;46342;49.046;11.920;2022-08-19T19:08:48;6.10;;;5.20;;
60494;SDS011;46342;49.046;11.920;2022-08-19T19:11:16;6.43;;;4.93;;
60494;SDS011;46342;49.046;11.920;2022-08-19T19:13:46;5.55;;;4.70;;
60494;SDS011;46342;49.046;11.920;2022-08-19T19:16:13;6.60;;;5.50;;
60494;SDS011;46342;49.046;11.920;2022-08-19T19:18:40;5.07;;;4.50;;